createdAt,value
2018-03-29T00:00:39.753Z,86.43
2018-03-29T00:01:39.749Z,86.61
2018-03-29T00:02:39.747Z,87.28
2018-03-29T00:03:39.742Z,86.24
2018-03-29T00:04:39.739Z,86.90
2018-03-29T00:05:39.734Z,87.19
2018-03-29T00:06:39.732Z,87.24
2018-03-29T00:07:39.728Z,87.05
2018-03-29T00:08:39.723Z,87.05
2018-03-29T00:09:39.719Z,87.09
2018-03-29T00:10:39.720Z,87.14
2018-03-29T00:11:39.713Z,87.09
2018-03-29T00:12:39.712Z,87.24
2018-03-29T00:13:39.706Z,87.57
2018-03-29T00:14:39.702Z,86.86
2018-03-29T00:15:39.709Z,86.90
2018-03-29T00:16:39.695Z,87.19
2018-03-29T00:17:39.697Z,86.80
2018-03-29T00:18:39.687Z,86.29
2018-03-29T00:19:39.683Z,86.29
2018-03-29T00:20:39.683Z,87.24
2018-03-29T00:21:39.677Z,87.52
2018-03-29T00:22:39.673Z,87.66
2018-03-29T00:23:39.669Z,87.57
2018-03-29T00:24:39.664Z,87.66
2018-03-29T00:25:39.661Z,87.52
2018-03-29T00:26:39.658Z,87.90
2018-03-29T00:27:39.656Z,88.09
2018-03-29T00:28:39.649Z,87.90
2018-03-29T00:29:39.646Z,88.09
2018-03-29T00:30:39.642Z,88.38
2018-03-29T00:31:39.638Z,87.62
2018-03-29T00:32:39.635Z,87.43
2018-03-29T00:33:39.631Z,87.62
2018-03-29T00:34:39.627Z,87.81
2018-03-29T00:35:39.624Z,87.43
2018-03-29T00:36:39.619Z,86.67
2018-03-29T00:37:39.616Z,87.14
2018-03-29T00:38:39.612Z,86.86
2018-03-29T00:39:39.607Z,86.67
2018-03-29T00:40:39.604Z,87.14
2018-03-29T00:41:39.601Z,86.95
2018-03-29T00:42:39.599Z,86.67
2018-03-29T00:43:39.592Z,86.29
2018-03-29T00:44:39.589Z,87.14
2018-03-29T00:45:39.585Z,87.24
2018-03-29T00:46:39.581Z,87.14
2018-03-29T00:47:39.578Z,87.43
2018-03-29T00:48:39.573Z,86.86
2018-03-29T00:49:39.569Z,87.24
2018-03-29T00:50:39.566Z,87.05
2018-03-29T00:51:39.562Z,88.09
2018-03-29T00:52:39.558Z,88.19
2018-03-29T00:53:39.555Z,87.62
2018-03-29T00:54:39.549Z,88.67
2018-03-29T00:55:39.545Z,88.57
2018-03-29T00:56:39.542Z,88.57
2018-03-29T00:57:39.538Z,88.85
2018-03-29T00:58:39.533Z,89.04
2018-03-29T00:59:39.530Z,89.23
2018-03-29T01:00:39.525Z,89.52
2018-03-29T01:01:39.522Z,89.52
2018-03-29T01:02:39.518Z,90.09
2018-03-29T01:03:39.516Z,90.09
2018-03-29T01:04:39.511Z,90.47
2018-03-29T01:05:39.506Z,90.66
2018-03-29T01:06:39.503Z,90.75
2018-03-29T01:07:39.498Z,91.23
2018-03-29T01:08:39.498Z,91.52
2018-03-29T01:09:39.492Z,91.42
2018-03-29T01:10:39.486Z,91.52
2018-03-29T01:11:39.482Z,91.99
2018-03-29T01:12:39.478Z,92.56
2018-03-29T01:13:39.476Z,92.37
2018-03-29T01:14:39.470Z,92.18
2018-03-29T01:15:39.465Z,92.75
2018-03-29T01:16:39.461Z,92.80
2018-03-29T01:17:39.465Z,93.18
2018-03-29T01:18:39.454Z,93.08
2018-03-29T01:19:39.450Z,93.70
2018-03-29T01:20:39.446Z,93.75
2018-03-29T01:21:39.442Z,93.99
2018-03-29T01:22:39.438Z,94.51
2018-03-29T01:23:39.435Z,94.32
2018-03-29T01:24:39.430Z,94.79
2018-03-29T01:25:39.425Z,95.27
2018-03-29T01:26:39.422Z,95.36
2018-03-29T01:27:39.418Z,95.94
2018-03-29T01:28:39.417Z,95.65
2018-03-29T01:29:39.410Z,96.12
2018-03-29T01:30:39.655Z,96.22
2018-03-29T01:31:39.411Z,96.50
2018-03-29T01:32:39.396Z,96.22
2018-03-29T01:33:39.393Z,96.60
2018-03-29T01:34:39.388Z,96.60
2018-03-29T01:35:39.385Z,96.31
2018-03-29T01:36:39.385Z,95.17
2018-03-29T01:37:39.376Z,94.42
2018-03-29T01:38:39.372Z,94.79
2018-03-29T01:39:39.368Z,94.89
2018-03-29T01:40:39.367Z,94.98
2018-03-29T01:41:39.360Z,95.22
2018-03-29T01:42:39.355Z,95.22
2018-03-29T01:43:39.353Z,94.93
2018-03-29T01:44:39.348Z,94.65
2018-03-29T01:45:39.341Z,94.56
2018-03-29T01:46:39.338Z,94.65
2018-03-29T01:47:39.335Z,95.31
2018-03-29T01:48:39.329Z,95.12
2018-03-29T01:49:39.326Z,95.27
2018-03-29T01:50:39.320Z,95.22
2018-03-29T01:51:39.317Z,95.51
2018-03-29T01:52:39.312Z,95.03
2018-03-29T01:53:39.314Z,95.17
2018-03-29T01:54:39.304Z,95.89
2018-03-29T01:55:39.300Z,95.41
2018-03-29T01:56:39.295Z,94.89
2018-03-29T01:57:39.289Z,95.03
2018-03-29T01:58:39.289Z,95.22
2018-03-29T01:59:39.281Z,95.70
2018-03-29T02:00:39.275Z,95.93
2018-03-29T02:01:39.271Z,95.70
2018-03-29T02:02:39.268Z,95.46
2018-03-29T02:03:39.263Z,94.89
2018-03-29T02:04:39.258Z,95.17
2018-03-29T02:05:39.253Z,94.98
2018-03-29T02:06:39.248Z,95.07
2018-03-29T02:07:39.243Z,95.17
2018-03-29T02:08:39.237Z,95.07
2018-03-29T02:09:39.233Z,95.17
2018-03-29T02:10:39.229Z,95.36
2018-03-29T02:11:39.225Z,95.31
2018-03-29T02:12:39.219Z,94.98
2018-03-29T02:13:39.215Z,95.07
2018-03-29T02:14:39.223Z,95.17
2018-03-29T02:15:39.206Z,95.22
2018-03-29T02:16:39.201Z,95.17
2018-03-29T02:17:39.196Z,94.98
2018-03-29T02:18:39.192Z,94.98
2018-03-29T02:19:39.186Z,94.70
2018-03-29T02:20:39.182Z,93.65
2018-03-29T02:21:39.177Z,93.84
2018-03-29T02:22:39.173Z,94.13
2018-03-29T02:23:39.167Z,94.23
2018-03-29T02:24:39.162Z,94.32
2018-03-29T02:25:39.158Z,94.51
2018-03-29T02:26:39.154Z,94.13
2018-03-29T02:27:39.149Z,94.03
2018-03-29T02:28:39.144Z,94.98
2018-03-29T02:29:39.139Z,94.42
2018-03-29T02:30:39.138Z,94.32
2018-03-29T02:31:39.131Z,94.32
2018-03-29T02:32:39.124Z,94.60
2018-03-29T02:33:39.125Z,93.46
2018-03-29T02:34:39.121Z,93.65
2018-03-29T02:35:39.130Z,93.75
2018-03-29T02:36:39.108Z,92.99
2018-03-29T02:37:39.103Z,92.80
2018-03-29T02:38:39.105Z,92.99
2018-03-29T02:39:39.097Z,93.46
2018-03-29T02:40:39.089Z,93.94
2018-03-29T02:41:39.083Z,93.56
2018-03-29T02:42:39.079Z,93.56
2018-03-29T02:43:39.075Z,93.56
2018-03-29T02:44:39.070Z,93.46
2018-03-29T02:45:39.065Z,94.03
2018-03-29T02:46:39.061Z,94.23
2018-03-29T02:47:39.057Z,93.84
2018-03-29T02:48:39.052Z,94.51
2018-03-29T02:49:39.046Z,94.60
2018-03-29T02:50:39.042Z,94.03
2018-03-29T02:51:39.037Z,93.94
2018-03-29T02:52:39.032Z,93.94
2018-03-29T02:53:39.027Z,94.42
2018-03-29T02:54:39.021Z,94.70
2018-03-29T02:55:39.017Z,94.32
2018-03-29T02:56:39.015Z,93.84
2018-03-29T02:57:39.008Z,93.84
2018-03-29T02:58:39.004Z,94.32
2018-03-29T02:59:38.998Z,94.23
2018-03-29T03:00:38.993Z,94.03
2018-03-29T03:01:38.991Z,93.84
2018-03-29T03:02:38.985Z,93.84
2018-03-29T03:03:38.983Z,93.56
2018-03-29T03:04:38.975Z,92.99
2018-03-29T03:05:38.970Z,92.99
2018-03-29T03:06:38.964Z,92.99
2018-03-29T03:07:38.960Z,93.18
2018-03-29T03:08:38.959Z,93.08
2018-03-29T03:09:38.951Z,92.90
2018-03-29T03:10:38.953Z,93.46
2018-03-29T03:11:38.942Z,93.18
2018-03-29T03:12:38.937Z,92.90
2018-03-29T03:13:38.933Z,92.99
2018-03-29T03:14:38.940Z,93.27
2018-03-29T03:15:38.921Z,92.80
2018-03-29T03:16:38.917Z,93.18
2018-03-29T03:17:38.912Z,93.46
2018-03-29T03:18:38.907Z,94.51
2018-03-29T03:19:38.903Z,94.51
2018-03-29T03:20:38.897Z,93.84
2018-03-29T03:21:38.892Z,93.84
2018-03-29T03:22:38.888Z,94.51
2018-03-29T03:23:38.884Z,94.32
2018-03-29T03:24:38.878Z,94.13
2018-03-29T03:25:38.873Z,94.65
2018-03-29T03:26:38.868Z,95.36
2018-03-29T03:27:38.863Z,95.03
2018-03-29T03:28:39.162Z,95.27
2018-03-29T03:29:38.852Z,95.03
2018-03-29T03:30:38.848Z,95.36
2018-03-29T03:31:38.842Z,94.84
2018-03-29T03:32:38.836Z,95.07
2018-03-29T03:33:38.831Z,95.12
2018-03-29T03:34:38.825Z,95.41
2018-03-29T03:35:38.823Z,95.22
2018-03-29T03:36:38.815Z,94.84
2018-03-29T03:37:38.814Z,95.31
2018-03-29T03:38:38.806Z,95.03
2018-03-29T03:39:38.804Z,95.22
2018-03-29T03:40:38.795Z,95.12
2018-03-29T03:41:38.792Z,95.12
2018-03-29T03:42:38.786Z,95.03
2018-03-29T03:43:38.780Z,95.27
2018-03-29T03:44:38.775Z,95.07
2018-03-29T03:45:38.770Z,94.51
2018-03-29T03:46:38.768Z,94.51
2018-03-29T03:47:38.758Z,94.60
2018-03-29T03:48:38.753Z,94.70
2018-03-29T03:49:38.750Z,95.27
2018-03-29T03:50:38.743Z,94.79
2018-03-29T03:51:38.739Z,94.70
2018-03-29T03:52:38.733Z,94.79
2018-03-29T03:53:38.728Z,95.17
2018-03-29T03:54:38.723Z,94.51
2018-03-29T03:55:38.718Z,94.42
2018-03-29T03:56:38.712Z,94.70
2018-03-29T03:57:38.708Z,94.79
2018-03-29T03:58:38.703Z,95.07
2018-03-29T03:59:38.698Z,95.27
2018-03-29T04:00:38.692Z,94.42
2018-03-29T04:01:38.686Z,94.60
2018-03-29T04:02:38.682Z,94.42
2018-03-29T04:03:38.681Z,94.51
2018-03-29T04:04:38.671Z,94.70
2018-03-29T04:05:38.665Z,94.13
2018-03-29T04:06:38.660Z,94.51
2018-03-29T04:07:38.657Z,93.84
2018-03-29T04:08:38.650Z,93.65
2018-03-29T04:09:38.645Z,92.71
2018-03-29T04:10:38.641Z,92.90
2018-03-29T04:11:38.636Z,92.99
2018-03-29T04:12:38.630Z,93.08
2018-03-29T04:13:38.626Z,93.18
2018-03-29T04:14:38.621Z,93.56
2018-03-29T04:15:38.617Z,93.65
2018-03-29T04:16:38.610Z,93.27
2018-03-29T04:17:38.606Z,92.99
2018-03-29T04:18:38.601Z,93.94
2018-03-29T04:19:38.596Z,92.90
2018-03-29T04:20:38.590Z,93.37
2018-03-29T04:21:38.584Z,93.08
2018-03-29T04:22:38.580Z,92.90
2018-03-29T04:23:38.576Z,92.80
2018-03-29T04:24:38.568Z,92.90
2018-03-29T04:25:38.564Z,93.08
2018-03-29T04:26:38.559Z,92.80
2018-03-29T04:27:38.555Z,92.23
2018-03-29T04:28:38.548Z,93.46
2018-03-29T04:29:38.550Z,93.27
2018-03-29T04:30:38.539Z,92.80
2018-03-29T04:31:38.535Z,93.08
2018-03-29T04:32:38.528Z,93.32
2018-03-29T04:33:38.523Z,93.65
2018-03-29T04:34:38.518Z,93.84
2018-03-29T04:35:38.512Z,93.65
2018-03-29T04:36:38.507Z,93.46
2018-03-29T04:37:38.502Z,93.75
2018-03-29T04:38:38.496Z,93.65
2018-03-29T04:39:38.491Z,93.13
2018-03-29T04:40:38.486Z,93.23
2018-03-29T04:41:38.481Z,93.61
2018-03-29T04:42:38.476Z,93.51
2018-03-29T04:43:38.471Z,93.61
2018-03-29T04:44:38.465Z,93.51
2018-03-29T04:45:38.459Z,93.80
2018-03-29T04:46:38.455Z,93.61
2018-03-29T04:47:38.450Z,93.61
2018-03-29T04:48:38.444Z,93.32
2018-03-29T04:49:38.439Z,93.41
2018-03-29T04:50:38.434Z,93.04
2018-03-29T04:51:38.427Z,92.94
2018-03-29T04:52:38.424Z,92.94
2018-03-29T04:53:38.416Z,92.94
2018-03-29T04:54:38.411Z,93.13
2018-03-29T04:55:38.408Z,93.51
2018-03-29T04:56:38.400Z,93.41
2018-03-29T04:57:38.395Z,93.51
2018-03-29T04:58:38.389Z,93.80
2018-03-29T04:59:38.384Z,93.04
2018-03-29T05:00:38.379Z,92.85
2018-03-29T05:01:38.374Z,92.94
2018-03-29T05:02:38.369Z,93.80
2018-03-29T05:03:38.364Z,93.51
2018-03-29T05:04:38.357Z,93.70
2018-03-29T05:05:38.356Z,93.80
2018-03-29T05:06:38.346Z,93.99
2018-03-29T05:07:38.391Z,93.99
2018-03-29T05:08:38.336Z,93.99
2018-03-29T05:09:38.331Z,93.89
2018-03-29T05:10:38.575Z,93.51
2018-03-29T05:11:38.319Z,93.99
2018-03-29T05:12:38.314Z,93.80
2018-03-29T05:13:38.311Z,94.18
2018-03-29T05:14:38.304Z,93.61
2018-03-29T05:15:38.298Z,93.51
2018-03-29T05:16:38.293Z,93.80
2018-03-29T05:17:38.287Z,93.61
2018-03-29T05:18:38.284Z,93.70
2018-03-29T05:19:38.277Z,93.89
2018-03-29T05:20:38.269Z,94.37
2018-03-29T05:21:38.268Z,93.70
2018-03-29T05:22:38.260Z,93.99
2018-03-29T05:23:38.254Z,94.08
2018-03-29T05:24:38.249Z,93.70
2018-03-29T05:25:38.243Z,93.41
2018-03-29T05:26:38.238Z,93.41
2018-03-29T05:27:38.232Z,93.61
2018-03-29T05:28:38.225Z,93.23
2018-03-29T05:29:38.221Z,93.61
2018-03-29T05:30:38.217Z,93.61
2018-03-29T05:31:38.214Z,93.61
2018-03-29T05:32:38.204Z,93.51
2018-03-29T05:33:38.200Z,93.61
2018-03-29T05:34:38.194Z,93.61
2018-03-29T05:35:38.190Z,93.51
2018-03-29T05:36:38.184Z,93.70
2018-03-29T05:37:38.178Z,93.80
2018-03-29T05:38:38.212Z,93.41
2018-03-29T05:39:38.167Z,93.61
2018-03-29T05:40:38.162Z,93.04
2018-03-29T05:41:38.157Z,92.85
2018-03-29T05:42:38.152Z,93.70
2018-03-29T05:43:38.171Z,93.04
2018-03-29T05:44:38.140Z,93.80
2018-03-29T05:45:38.136Z,93.70
2018-03-29T05:46:38.129Z,93.23
2018-03-29T05:47:38.131Z,93.89
2018-03-29T05:48:38.120Z,92.85
2018-03-29T05:49:38.114Z,93.23
2018-03-29T05:50:38.117Z,93.27
2018-03-29T05:51:38.104Z,92.99
2018-03-29T05:52:38.099Z,93.08
2018-03-29T05:53:38.094Z,92.90
2018-03-29T05:54:38.356Z,92.61
2018-03-29T05:55:38.083Z,92.23
2018-03-29T05:56:38.078Z,91.85
2018-03-29T05:57:38.080Z,91.38
2018-03-29T05:58:38.067Z,91.38
2018-03-29T05:59:38.065Z,91.66
2018-03-29T06:00:38.056Z,92.52
2018-03-29T06:01:38.058Z,92.42
2018-03-29T06:02:38.049Z,92.42
2018-03-29T06:03:38.043Z,91.75
2018-03-29T06:04:38.037Z,91.38
2018-03-29T06:05:38.366Z,92.23
2018-03-29T06:06:38.028Z,92.14
2018-03-29T06:07:38.023Z,91.47
2018-03-29T06:08:38.022Z,90.52
2018-03-29T06:09:38.014Z,91.09
2018-03-29T06:10:38.008Z,91.38
2018-03-29T06:11:38.004Z,91.38
2018-03-29T06:12:37.998Z,91.66
2018-03-29T06:13:37.999Z,91.47
2018-03-29T06:14:37.990Z,91.38
2018-03-29T06:15:37.986Z,91.19
2018-03-29T06:16:37.980Z,91.09
2018-03-29T06:17:37.976Z,90.66
2018-03-29T06:18:38.006Z,90.38
2018-03-29T06:19:38.268Z,90.57
2018-03-29T06:20:37.963Z,90.00
2018-03-29T06:21:37.957Z,90.57
2018-03-29T06:22:37.955Z,90.38
2018-03-29T06:23:37.950Z,90.66
2018-03-29T06:24:37.944Z,89.90
2018-03-29T06:25:37.948Z,90.09
2018-03-29T06:26:37.940Z,90.19
2018-03-29T06:27:37.933Z,89.62
2018-03-29T06:28:37.929Z,90.00
2018-03-29T06:29:37.925Z,90.66
2018-03-29T06:30:37.921Z,90.00
2018-03-29T06:31:37.916Z,88.86
2018-03-29T06:32:37.912Z,89.24
2018-03-29T06:33:37.915Z,89.33
2018-03-29T06:34:37.906Z,89.14
2018-03-29T06:35:37.901Z,89.05
2018-03-29T06:36:37.897Z,89.14
2018-03-29T06:37:37.893Z,88.29
2018-03-29T06:38:37.896Z,88.86
2018-03-29T06:39:37.885Z,88.67
2018-03-29T06:40:37.884Z,88.86
2018-03-29T06:41:37.877Z,88.81
2018-03-29T06:42:37.904Z,89.67
2018-03-29T06:43:37.870Z,89.28
2018-03-29T06:44:37.902Z,88.15
2018-03-29T06:45:37.860Z,87.67
2018-03-29T06:46:37.859Z,88.24
2018-03-29T06:47:37.853Z,86.72
2018-03-29T06:48:37.850Z,86.63
2018-03-29T06:49:37.846Z,86.43
2018-03-29T06:50:37.844Z,87.19
2018-03-29T06:51:37.840Z,86.82
2018-03-29T06:52:37.836Z,86.91
2018-03-29T06:53:37.832Z,87.01
2018-03-29T06:54:37.829Z,87.29
2018-03-29T06:55:37.826Z,87.62
2018-03-29T06:56:37.825Z,86.96
2018-03-29T06:57:37.823Z,87.05
2018-03-29T06:58:37.815Z,86.68
2018-03-29T06:59:38.094Z,87.05
2018-03-29T07:00:37.808Z,87.91
2018-03-29T07:01:37.803Z,88.01
2018-03-29T07:02:37.800Z,87.34
2018-03-29T07:03:38.068Z,88.05
2018-03-29T07:04:37.856Z,88.24
2018-03-29T07:05:37.851Z,88.24
2018-03-29T07:06:37.882Z,88.53
2018-03-29T07:07:37.878Z,87.57
2018-03-29T07:08:37.791Z,87.10
2018-03-29T07:09:37.963Z,87.86
2018-03-29T07:10:37.862Z,87.29
2018-03-29T07:11:37.817Z,86.34
2018-03-29T07:12:37.829Z,87.48
2018-03-29T07:13:37.762Z,87.38
2018-03-29T07:14:37.761Z,88.05
2018-03-29T07:15:37.756Z,88.34
2018-03-29T07:16:37.751Z,87.86
2018-03-29T07:17:37.747Z,87.48
2018-03-29T07:18:37.744Z,87.76
2018-03-29T07:19:37.745Z,87.48
2018-03-29T07:20:37.743Z,87.01
2018-03-29T07:21:37.733Z,87.67
2018-03-29T07:22:37.730Z,87.29
2018-03-29T07:23:37.727Z,87.24
2018-03-29T07:24:37.722Z,87.82
2018-03-29T07:25:37.718Z,89.00
2018-03-29T07:26:37.714Z,89.09
2018-03-29T07:27:37.711Z,88.34
2018-03-29T07:28:37.708Z,87.38
2018-03-29T07:29:37.705Z,87.48
2018-03-29T07:30:37.724Z,87.57
2018-03-29T07:31:37.701Z,87.38
2018-03-29T07:32:37.693Z,87.86
2018-03-29T07:33:37.691Z,87.67
2018-03-29T07:34:37.712Z,88.24
2018-03-29T07:35:37.771Z,88.05
2018-03-29T07:36:37.686Z,87.29
2018-03-29T07:37:37.675Z,86.63
2018-03-29T07:38:37.673Z,86.82
2018-03-29T07:39:37.671Z,86.43
2018-03-29T07:40:37.666Z,86.05
2018-03-29T07:41:37.664Z,86.53
2018-03-29T07:42:37.660Z,86.82
2018-03-29T07:43:37.946Z,85.96
2018-03-29T07:44:37.653Z,86.34
2018-03-29T07:45:37.648Z,85.58
2018-03-29T07:46:37.646Z,86.15
2018-03-29T07:47:37.645Z,86.53
2018-03-29T07:48:37.899Z,87.01
2018-03-29T07:49:38.406Z,87.10
2018-03-29T07:50:37.881Z,87.10
2018-03-29T07:51:37.629Z,86.91
2018-03-29T07:52:37.859Z,86.82
2018-03-29T07:53:37.621Z,87.10
2018-03-29T07:54:37.617Z,87.19
2018-03-29T07:55:37.615Z,87.57
2018-03-29T07:56:37.612Z,86.15
2018-03-29T07:57:37.609Z,86.82
2018-03-29T07:58:37.606Z,86.72
2018-03-29T07:59:37.602Z,87.48
2018-03-29T08:00:37.598Z,87.01
2018-03-29T08:01:37.749Z,86.72
2018-03-29T08:02:37.593Z,86.34
2018-03-29T08:03:37.589Z,85.86
2018-03-29T08:04:37.584Z,85.86
2018-03-29T08:05:37.582Z,87.01
2018-03-29T08:06:37.580Z,87.01
2018-03-29T08:07:37.576Z,87.14
2018-03-29T08:08:37.571Z,86.47
2018-03-29T08:09:37.568Z,85.91
2018-03-29T08:10:37.567Z,85.30
2018-03-29T08:11:37.563Z,85.20
2018-03-29T08:12:37.559Z,86.10
2018-03-29T08:13:37.555Z,85.34
2018-03-29T08:14:37.552Z,84.86
2018-03-29T08:15:37.550Z,85.34
2018-03-29T08:16:37.547Z,85.15
2018-03-29T08:17:37.544Z,85.81
2018-03-29T08:18:37.542Z,84.86
2018-03-29T08:19:37.538Z,84.10
2018-03-29T08:20:37.536Z,84.58
2018-03-29T08:21:37.533Z,83.34
2018-03-29T08:22:37.528Z,84.39
2018-03-29T08:23:37.526Z,85.05
2018-03-29T08:24:37.523Z,84.39
2018-03-29T08:25:37.520Z,84.48
2018-03-29T08:26:37.517Z,83.62
2018-03-29T08:27:37.514Z,83.62
2018-03-29T08:28:37.782Z,84.39
2018-03-29T08:29:37.511Z,84.10
2018-03-29T08:30:37.509Z,84.01
2018-03-29T08:31:37.503Z,83.15
2018-03-29T08:32:37.500Z,83.39
2018-03-29T08:33:37.495Z,83.19
2018-03-29T08:34:37.897Z,83.19
2018-03-29T08:35:37.491Z,83.10
2018-03-29T08:36:37.490Z,82.62
2018-03-29T08:37:37.671Z,83.10
2018-03-29T08:38:37.485Z,83.00
2018-03-29T08:39:37.790Z,82.96
2018-03-29T08:40:37.575Z,83.06
2018-03-29T08:41:37.475Z,84.14
2018-03-29T08:42:37.756Z,83.82
2018-03-29T08:43:37.469Z,84.29
2018-03-29T08:44:37.486Z,84.77
2018-03-29T08:45:37.464Z,83.91
2018-03-29T08:46:37.747Z,84.29
2018-03-29T08:47:37.464Z,83.19
2018-03-29T08:48:37.458Z,82.29
2018-03-29T08:49:37.521Z,81.96
2018-03-29T08:50:37.451Z,82.49
2018-03-29T08:51:37.641Z,83.91
2018-03-29T08:52:37.566Z,83.82
2018-03-29T08:53:37.442Z,84.01
2018-03-29T08:54:37.440Z,84.48
2018-03-29T08:55:37.757Z,84.86
2018-03-29T08:56:37.436Z,84.77
2018-03-29T08:57:37.433Z,85.15
2018-03-29T08:58:38.450Z,84.20
2018-03-29T08:59:37.726Z,84.10
2018-03-29T09:00:37.429Z,83.91
2018-03-29T09:01:37.422Z,83.82
2018-03-29T09:02:37.419Z,84.48
2018-03-29T09:03:37.417Z,84.29
2018-03-29T09:04:37.601Z,84.39
2018-03-29T09:05:37.411Z,84.10
2018-03-29T09:06:37.410Z,83.53
2018-03-29T09:07:37.407Z,83.34
2018-03-29T09:08:37.549Z,83.15
2018-03-29T09:09:37.436Z,83.25
2018-03-29T09:10:37.398Z,82.77
2018-03-29T09:11:37.394Z,83.25
2018-03-29T09:12:37.476Z,83.15
2018-03-29T09:13:37.389Z,83.53
2018-03-29T09:14:37.387Z,84.20
2018-03-29T09:15:37.385Z,84.29
2018-03-29T09:16:37.381Z,83.15
2018-03-29T09:17:37.379Z,83.53
2018-03-29T09:18:37.377Z,84.01
2018-03-29T09:19:37.374Z,83.62
2018-03-29T09:20:37.371Z,82.29
2018-03-29T09:21:37.368Z,82.01
2018-03-29T09:22:37.365Z,81.25
2018-03-29T09:23:37.363Z,80.21
2018-03-29T09:24:37.359Z,79.83
2018-03-29T09:25:37.357Z,80.77
2018-03-29T09:26:37.354Z,81.25
2018-03-29T09:27:37.351Z,80.49
2018-03-29T09:28:37.348Z,79.16
2018-03-29T09:29:37.350Z,79.16
2018-03-29T09:30:37.347Z,78.69
2018-03-29T09:31:37.341Z,78.88
2018-03-29T09:32:37.339Z,78.59
2018-03-29T09:33:37.336Z,78.59
2018-03-29T09:34:37.572Z,78.78
2018-03-29T09:35:37.362Z,78.82
2018-03-29T09:36:37.326Z,79.77
2018-03-29T09:37:37.323Z,79.16
2018-03-29T09:38:37.322Z,78.69
2018-03-29T09:39:37.319Z,79.20
2018-03-29T09:40:37.316Z,79.16
2018-03-29T09:41:37.972Z,79.01
2018-03-29T09:42:37.382Z,78.06
2018-03-29T09:43:37.307Z,77.30
2018-03-29T09:44:37.306Z,78.06
2018-03-29T09:45:37.303Z,78.53
2018-03-29T09:46:37.301Z,77.77
2018-03-29T09:47:37.301Z,77.49
2018-03-29T09:48:37.294Z,77.01
2018-03-29T09:49:37.362Z,76.54
2018-03-29T09:50:37.291Z,76.25
2018-03-29T09:51:37.287Z,75.87
2018-03-29T09:52:37.672Z,75.21
2018-03-29T09:53:37.282Z,75.21
2018-03-29T09:54:37.281Z,75.96
2018-03-29T09:55:37.278Z,76.92
2018-03-29T09:56:37.275Z,77.97
2018-03-29T09:57:37.273Z,78.06
2018-03-29T09:58:37.273Z,76.73
2018-03-29T09:59:37.269Z,76.73
2018-03-29T10:00:37.266Z,76.82
2018-03-29T10:01:37.263Z,75.96
2018-03-29T10:02:37.261Z,76.16
2018-03-29T10:03:37.259Z,75.87
2018-03-29T10:04:37.311Z,75.30
2018-03-29T10:05:37.253Z,75.68
2018-03-29T10:06:37.253Z,76.16
2018-03-29T10:07:37.249Z,76.35
2018-03-29T10:08:37.366Z,78.06
2018-03-29T10:09:37.309Z,77.58
2018-03-29T10:10:37.275Z,77.68
2018-03-29T10:11:37.241Z,76.35
2018-03-29T10:12:37.236Z,76.44
2018-03-29T10:13:37.233Z,75.02
2018-03-29T10:14:37.232Z,74.16
2018-03-29T10:15:37.231Z,75.11
2018-03-29T10:16:37.227Z,75.21
2018-03-29T10:17:37.224Z,75.02
2018-03-29T10:18:37.221Z,75.02
2018-03-29T10:19:37.220Z,75.40
2018-03-29T10:20:37.219Z,75.02
2018-03-29T10:21:37.214Z,75.40
2018-03-29T10:22:37.214Z,76.25
2018-03-29T10:23:37.212Z,77.77
2018-03-29T10:24:37.245Z,76.82
2018-03-29T10:25:37.205Z,76.44
2018-03-29T10:26:37.202Z,77.49
2018-03-29T10:27:37.205Z,76.96
2018-03-29T10:28:37.562Z,75.40
2018-03-29T10:29:37.196Z,75.53
2018-03-29T10:30:37.196Z,74.58
2018-03-29T10:31:37.225Z,74.58
2018-03-29T10:32:37.190Z,74.67
2018-03-29T10:33:37.188Z,74.87
2018-03-29T10:34:37.186Z,73.82
2018-03-29T10:35:37.184Z,74.10
2018-03-29T10:36:37.181Z,73.28
2018-03-29T10:37:37.184Z,73.28
2018-03-29T10:38:37.179Z,72.62
2018-03-29T10:39:37.176Z,71.28
2018-03-29T10:40:37.174Z,72.81
2018-03-29T10:41:37.173Z,70.49
2018-03-29T10:42:37.171Z,70.97
2018-03-29T10:43:37.169Z,72.67
2018-03-29T10:44:37.510Z,73.44
2018-03-29T10:45:37.175Z,72.67
2018-03-29T10:46:37.168Z,71.86
2018-03-29T10:47:37.163Z,72.05
2018-03-29T10:48:37.166Z,70.72
2018-03-29T10:49:37.159Z,71.76
2018-03-29T10:50:37.158Z,70.52
2018-03-29T10:51:37.155Z,70.43
2018-03-29T10:52:37.155Z,69.76
2018-03-29T10:53:37.153Z,69.10
2018-03-29T10:54:37.152Z,68.81
2018-03-29T10:55:37.150Z,68.24
2018-03-29T10:56:37.675Z,68.71
2018-03-29T10:57:37.404Z,69.29
2018-03-29T10:58:37.146Z,67.67
2018-03-29T10:59:37.146Z,67.47
2018-03-29T11:00:37.143Z,68.46
2018-03-29T11:01:37.143Z,67.10
2018-03-29T11:02:37.141Z,65.58
2018-03-29T11:03:37.141Z,65.32
2018-03-29T11:04:37.139Z,66.46
2018-03-29T11:05:37.137Z,67.70
2018-03-29T11:06:37.137Z,67.03
2018-03-29T11:07:37.138Z,65.99
2018-03-29T11:08:37.136Z,66.02
2018-03-29T11:09:37.136Z,65.92
2018-03-29T11:10:37.136Z,65.55
2018-03-29T11:11:37.476Z,65.36
2018-03-29T11:12:37.135Z,63.07
2018-03-29T11:13:37.134Z,62.30
2018-03-29T11:14:37.377Z,64.59
2018-03-29T11:15:37.135Z,64.97
2018-03-29T11:16:37.133Z,63.00
2018-03-29T11:17:37.135Z,62.05
2018-03-29T11:18:37.135Z,63.39
2018-03-29T11:19:37.135Z,62.43
2018-03-29T11:20:37.135Z,62.34
2018-03-29T11:21:37.134Z,62.05
2018-03-29T11:22:37.136Z,60.72
2018-03-29T11:23:37.136Z,61.67
2018-03-29T11:24:37.136Z,61.48
2018-03-29T11:25:37.136Z,62.94
2018-03-29T11:26:37.137Z,61.89
2018-03-29T11:27:37.139Z,62.37
2018-03-29T11:28:37.138Z,61.70
2018-03-29T11:29:37.139Z,60.94
2018-03-29T11:30:37.142Z,60.87
2018-03-29T11:31:37.143Z,60.58
2018-03-29T11:32:37.145Z,59.63
2018-03-29T11:33:37.148Z,58.94
2018-03-29T11:34:37.148Z,59.25
2018-03-29T11:35:37.152Z,57.92
2018-03-29T11:36:37.158Z,58.87
2018-03-29T11:37:37.158Z,60.02
2018-03-29T11:38:37.162Z,57.43
2018-03-29T11:39:37.167Z,56.70
2018-03-29T11:40:37.169Z,56.80
2018-03-29T11:41:37.267Z,56.32
2018-03-29T11:42:37.178Z,55.46
2018-03-29T11:43:37.185Z,55.08
2018-03-29T11:44:37.189Z,54.99
2018-03-29T11:45:37.192Z,54.50
2018-03-29T11:46:37.200Z,54.86
2018-03-29T11:47:37.201Z,54.29
2018-03-29T11:48:37.206Z,53.91
2018-03-29T11:49:37.209Z,55.05
2018-03-29T11:50:37.213Z,54.93
2018-03-29T11:51:37.218Z,54.93
2018-03-29T11:52:37.220Z,55.50
2018-03-29T11:53:37.223Z,55.88
2018-03-29T11:54:37.274Z,55.69
2018-03-29T11:55:37.230Z,55.88
2018-03-29T11:56:37.233Z,55.60
2018-03-29T11:57:37.241Z,55.41
2018-03-29T11:58:37.238Z,55.76
2018-03-29T11:59:37.240Z,54.71
2018-03-29T12:00:37.243Z,54.97
2018-03-29T12:01:37.244Z,55.26
2018-03-29T12:02:37.248Z,55.92
2018-03-29T12:03:37.248Z,57.16
2018-03-29T12:04:37.250Z,56.68
2018-03-29T12:05:37.252Z,56.59
2018-03-29T12:06:37.254Z,56.02
2018-03-29T12:07:37.256Z,55.35
2018-03-29T12:08:37.256Z,55.44
2018-03-29T12:09:37.347Z,54.71
2018-03-29T12:10:37.258Z,54.90
2018-03-29T12:11:37.315Z,54.24
2018-03-29T12:12:37.260Z,53.47
2018-03-29T12:13:37.260Z,53.85
2018-03-29T12:14:37.264Z,53.56
2018-03-29T12:15:37.265Z,53.47
2018-03-29T12:16:37.265Z,53.66
2018-03-29T12:17:37.264Z,53.00
2018-03-29T12:18:37.401Z,53.56
2018-03-29T12:19:37.267Z,53.85
2018-03-29T12:20:37.268Z,53.56
2018-03-29T12:21:37.269Z,52.80
2018-03-29T12:22:37.271Z,53.09
2018-03-29T12:23:37.272Z,54.24
2018-03-29T12:24:37.271Z,54.11
2018-03-29T12:25:37.272Z,54.11
2018-03-29T12:26:37.274Z,55.09
2018-03-29T12:27:37.276Z,54.80
2018-03-29T12:28:37.276Z,54.14
2018-03-29T12:29:37.276Z,52.71
2018-03-29T12:30:37.278Z,52.55
2018-03-29T12:31:37.279Z,52.36
2018-03-29T12:32:37.285Z,51.78
2018-03-29T12:33:37.606Z,51.21
2018-03-29T12:34:37.282Z,51.12
2018-03-29T12:35:37.284Z,50.61
2018-03-29T12:36:37.408Z,50.92
2018-03-29T12:37:37.287Z,51.68
2018-03-29T12:38:37.644Z,51.40
2018-03-29T12:39:37.424Z,50.45
2018-03-29T12:40:37.291Z,50.45
2018-03-29T12:41:37.292Z,50.45
2018-03-29T12:42:37.296Z,53.02
2018-03-29T12:43:37.297Z,54.17
2018-03-29T12:44:37.298Z,51.78
2018-03-29T12:45:37.300Z,52.16
2018-03-29T12:46:37.301Z,51.97
2018-03-29T12:47:37.302Z,51.18
2018-03-29T12:48:37.304Z,51.66
2018-03-29T12:49:37.304Z,53.47
2018-03-29T12:50:37.305Z,53.95
2018-03-29T12:51:37.309Z,52.97
2018-03-29T12:52:37.309Z,52.59